sensor_id;sensor_type;location;lat;lon;timestamp;P1;durP1;ratioP1;P2;durP2;ratioP2
59728;SDS011;45588;51.598;5.618;2024-01-27T00:00:21;26.88;;;7.25;;
59728;SDS011;45588;51.598;5.618;2024-01-27T00:02:46;20.73;;;6.05;;
59728;SDS011;45588;51.598;5.618;2024-01-27T00:05:11;20.23;;;6.23;;
59728;SDS011;45588;51.598;5.618;2024-01-27T00:07:37;26.52;;;6.88;;
59728;SDS011;45588;51.598;5.618;2024-01-27T00:10:02;36.05;;;7.70;;
59728;SDS011;45588;51.598;5.618;2024-01-27T00:12:27;17.92;;;6.72;;
59728;SDS011;45588;51.598;5.618;2024-01-27T00:14:53;18.63;;;5.72;;
59728;SDS011;45588;51.598;5.618;2024-01-27T00:17:18;19.65;;;6.22;;
59728;SDS011;45588;51.598;5.618;2024-01-27T00:19:48;16.20;;;5.90;;
59728;SDS011;45588;51.598;5.618;2024-01-27T00:22:14;22.58;;;7.45;;
59728;SDS011;45588;51.598;5.618;2024-01-27T00:24:39;14.38;;;6.50;;
59728;SDS011;45588;51.598;5.618;2024-01-27T00:27:04;21.48;;;6.82;;
59728;SDS011;45588;51.598;5.618;2024-01-27T00:29:29;23.52;;;7.43;;
59728;SDS011;45588;51.598;5.618;2024-01-27T00:31:54;17.20;;;6.45;;
59728;SDS011;45588;51.598;5.618;2024-01-27T00:34:20;16.45;;;7.40;;
59728;SDS011;45588;51.598;5.618;2024-01-27T00:36:45;25.95;;;8.40;;
59728;SDS011;45588;51.598;5.618;2024-01-27T00:39:14;22.80;;;5.97;;
59728;SDS011;45588;51.598;5.618;2024-01-27T00:41:39;19.27;;;6.57;;
59728;SDS011;45588;51.598;5.618;2024-01-27T00:44:04;22.00;;;7.20;;
59728;SDS011;45588;51.598;5.618;2024-01-27T00:46:30;14.98;;;6.50;;
59728;SDS011;45588;51.598;5.618;2024-01-27T00:48:55;19.15;;;8.38;;
59728;SDS011;45588;51.598;5.618;2024-01-27T00:51:20;19.38;;;6.35;;
59728;SDS011;45588;51.598;5.618;2024-01-27T00:53:45;29.98;;;6.93;;
59728;SDS011;45588;51.598;5.618;2024-01-27T00:56:10;20.98;;;7.13;;
59728;SDS011;45588;51.598;5.618;2024-01-27T00:58:36;22.05;;;6.95;;
59728;SDS011;45588;51.598;5.618;2024-01-27T01:01:01;16.92;;;7.32;;
59728;SDS011;45588;51.598;5.618;2024-01-27T01:03:26;15.38;;;7.32;;
59728;SDS011;45588;51.598;5.618;2024-01-27T01:05:51;16.77;;;6.65;;
59728;SDS011;45588;51.598;5.618;2024-01-27T01:08:16;25.27;;;7.57;;
59728;SDS011;45588;51.598;5.618;2024-01-27T01:10:41;20.48;;;6.25;;
59728;SDS011;45588;51.598;5.618;2024-01-27T01:13:09;24.25;;;7.70;;
59728;SDS011;45588;51.598;5.618;2024-01-27T01:15:34;22.02;;;7.45;;
59728;SDS011;45588;51.598;5.618;2024-01-27T01:18:00;25.40;;;8.32;;
59728;SDS011;45588;51.598;5.618;2024-01-27T01:20:25;16.63;;;7.50;;
59728;SDS011;45588;51.598;5.618;2024-01-27T01:22:51;24.05;;;7.47;;
59728;SDS011;45588;51.598;5.618;2024-01-27T01:25:16;27.70;;;7.82;;
59728;SDS011;45588;51.598;5.618;2024-01-27T01:27:41;26.88;;;7.85;;
59728;SDS011;45588;51.598;5.618;2024-01-27T01:30:07;25.15;;;7.40;;
59728;SDS011;45588;51.598;5.618;2024-01-27T01:32:32;26.48;;;7.60;;
59728;SDS011;45588;51.598;5.618;2024-01-27T01:34:58;24.92;;;8.27;;
59728;SDS011;45588;51.598;5.618;2024-01-27T01:37:23;18.77;;;7.95;;
59728;SDS011;45588;51.598;5.618;2024-01-27T01:39:48;23.95;;;8.32;;
59728;SDS011;45588;51.598;5.618;2024-01-27T01:42:13;23.20;;;8.10;;
59728;SDS011;45588;51.598;5.618;2024-01-27T01:44:38;28.55;;;8.82;;
59728;SDS011;45588;51.598;5.618;2024-01-27T01:47:04;23.33;;;8.65;;
59728;SDS011;45588;51.598;5.618;2024-01-27T01:49:29;28.17;;;8.45;;
59728;SDS011;45588;51.598;5.618;2024-01-27T01:51:54;21.67;;;7.43;;
59728;SDS011;45588;51.598;5.618;2024-01-27T01:54:19;22.17;;;9.30;;
59728;SDS011;45588;51.598;5.618;2024-01-27T01:56:47;23.58;;;11.55;;
59728;SDS011;45588;51.598;5.618;2024-01-27T01:59:12;26.65;;;11.82;;
59728;SDS011;45588;51.598;5.618;2024-01-27T02:01:37;26.10;;;9.52;;
59728;SDS011;45588;51.598;5.618;2024-01-27T02:04:03;29.75;;;9.52;;
59728;SDS011;45588;51.598;5.618;2024-01-27T02:06:29;26.65;;;8.25;;
59728;SDS011;45588;51.598;5.618;2024-01-27T02:08:54;25.33;;;9.45;;
59728;SDS011;45588;51.598;5.618;2024-01-27T02:11:19;16.25;;;8.30;;
59728;SDS011;45588;51.598;5.618;2024-01-27T02:13:44;31.15;;;10.32;;
59728;SDS011;45588;51.598;5.618;2024-01-27T02:16:11;24.17;;;9.23;;
59728;SDS011;45588;51.598;5.618;2024-01-27T02:18:37;15.25;;;8.40;;
59728;SDS011;45588;51.598;5.618;2024-01-27T02:21:02;29.38;;;10.90;;
59728;SDS011;45588;51.598;5.618;2024-01-27T02:23:27;39.30;;;16.90;;
59728;SDS011;45588;51.598;5.618;2024-01-27T02:25:52;34.65;;;17.42;;
59728;SDS011;45588;51.598;5.618;2024-01-27T02:28:18;31.45;;;14.60;;
59728;SDS011;45588;51.598;5.618;2024-01-27T02:30:43;28.65;;;13.77;;
59728;SDS011;45588;51.598;5.618;2024-01-27T02:33:08;32.33;;;15.25;;
59728;SDS011;45588;51.598;5.618;2024-01-27T02:35:33;32.22;;;15.10;;
59728;SDS011;45588;51.598;5.618;2024-01-27T02:37:58;44.47;;;16.80;;
59728;SDS011;45588;51.598;5.618;2024-01-27T02:40:24;31.45;;;13.27;;
59728;SDS011;45588;51.598;5.618;2024-01-27T02:42:49;23.98;;;12.18;;
59728;SDS011;45588;51.598;5.618;2024-01-27T02:45:14;29.77;;;13.20;;
59728;SDS011;45588;51.598;5.618;2024-01-27T02:47:39;26.92;;;12.50;;
59728;SDS011;45588;51.598;5.618;2024-01-27T02:50:05;23.60;;;11.15;;
59728;SDS011;45588;51.598;5.618;2024-01-27T02:52:31;28.08;;;11.25;;
59728;SDS011;45588;51.598;5.618;2024-01-27T02:54:56;31.13;;;11.45;;
59728;SDS011;45588;51.598;5.618;2024-01-27T02:57:22;29.05;;;10.63;;
59728;SDS011;45588;51.598;5.618;2024-01-27T02:59:47;37.72;;;11.80;;
59728;SDS011;45588;51.598;5.618;2024-01-27T03:02:12;28.50;;;12.18;;
59728;SDS011;45588;51.598;5.618;2024-01-27T03:04:37;25.45;;;11.68;;
59728;SDS011;45588;51.598;5.618;2024-01-27T03:07:03;33.55;;;12.98;;
59728;SDS011;45588;51.598;5.618;2024-01-27T03:09:28;36.58;;;12.48;;
59728;SDS011;45588;51.598;5.618;2024-01-27T03:11:53;30.10;;;11.63;;
59728;SDS011;45588;51.598;5.618;2024-01-27T03:14:18;37.30;;;16.02;;
59728;SDS011;45588;51.598;5.618;2024-01-27T03:16:43;28.08;;;15.40;;
59728;SDS011;45588;51.598;5.618;2024-01-27T03:19:09;33.22;;;14.73;;
59728;SDS011;45588;51.598;5.618;2024-01-27T03:21:34;28.10;;;12.55;;
59728;SDS011;45588;51.598;5.618;2024-01-27T03:24:00;29.63;;;14.38;;
59728;SDS011;45588;51.598;5.618;2024-01-27T03:26:25;29.77;;;13.13;;
59728;SDS011;45588;51.598;5.618;2024-01-27T03:28:50;35.83;;;12.73;;
59728;SDS011;45588;51.598;5.618;2024-01-27T03:31:15;32.67;;;13.68;;
59728;SDS011;45588;51.598;5.618;2024-01-27T03:33:40;37.67;;;13.35;;
59728;SDS011;45588;51.598;5.618;2024-01-27T03:36:09;25.02;;;12.25;;
59728;SDS011;45588;51.598;5.618;2024-01-27T03:38:34;25.70;;;12.20;;
59728;SDS011;45588;51.598;5.618;2024-01-27T03:41:01;22.00;;;11.75;;
59728;SDS011;45588;51.598;5.618;2024-01-27T03:43:26;24.48;;;11.10;;
59728;SDS011;45588;51.598;5.618;2024-01-27T03:45:52;24.10;;;11.52;;
59728;SDS011;45588;51.598;5.618;2024-01-27T03:48:17;30.10;;;13.07;;
59728;SDS011;45588;51.598;5.618;2024-01-27T03:50:43;33.58;;;11.95;;
59728;SDS011;45588;51.598;5.618;2024-01-27T03:53:08;26.58;;;11.00;;
59728;SDS011;45588;51.598;5.618;2024-01-27T03:55:33;29.40;;;10.07;;
59728;SDS011;45588;51.598;5.618;2024-01-27T03:57:59;26.13;;;13.05;;
59728;SDS011;45588;51.598;5.618;2024-01-27T04:00:24;28.02;;;11.27;;
59728;SDS011;45588;51.598;5.618;2024-01-27T04:02:49;26.23;;;10.82;;
59728;SDS011;45588;51.598;5.618;2024-01-27T04:05:14;24.67;;;12.10;;
59728;SDS011;45588;51.598;5.618;2024-01-27T04:07:40;20.08;;;10.80;;
59728;SDS011;45588;51.598;5.618;2024-01-27T04:10:05;25.67;;;12.55;;
59728;SDS011;45588;51.598;5.618;2024-01-27T04:12:30;25.40;;;10.68;;
59728;SDS011;45588;51.598;5.618;2024-01-27T04:14:56;26.77;;;11.93;;
59728;SDS011;45588;51.598;5.618;2024-01-27T04:17:22;28.42;;;11.75;;
59728;SDS011;45588;51.598;5.618;2024-01-27T04:19:48;24.35;;;10.82;;
59728;SDS011;45588;51.598;5.618;2024-01-27T04:22:13;21.45;;;11.65;;
59728;SDS011;45588;51.598;5.618;2024-01-27T04:24:38;23.50;;;11.02;;
59728;SDS011;45588;51.598;5.618;2024-01-27T04:27:04;20.27;;;10.70;;
59728;SDS011;45588;51.598;5.618;2024-01-27T04:29:29;22.83;;;13.32;;
59728;SDS011;45588;51.598;5.618;2024-01-27T04:31:54;22.88;;;11.18;;
59728;SDS011;45588;51.598;5.618;2024-01-27T04:34:19;25.52;;;12.65;;
59728;SDS011;45588;51.598;5.618;2024-01-27T04:36:44;25.20;;;11.73;;
59728;SDS011;45588;51.598;5.618;2024-01-27T04:39:10;27.35;;;13.00;;
59728;SDS011;45588;51.598;5.618;2024-01-27T04:41:40;32.22;;;11.80;;
59728;SDS011;45588;51.598;5.618;2024-01-27T04:44:06;26.05;;;11.48;;
59728;SDS011;45588;51.598;5.618;2024-01-27T04:46:31;24.92;;;11.77;;
59728;SDS011;45588;51.598;5.618;2024-01-27T04:48:56;34.30;;;12.52;;
59728;SDS011;45588;51.598;5.618;2024-01-27T04:51:21;23.35;;;12.43;;
59728;SDS011;45588;51.598;5.618;2024-01-27T04:53:46;38.40;;;15.77;;
59728;SDS011;45588;51.598;5.618;2024-01-27T04:56:12;35.45;;;14.18;;
59728;SDS011;45588;51.598;5.618;2024-01-27T04:58:37;24.13;;;13.38;;
59728;SDS011;45588;51.598;5.618;2024-01-27T05:01:03;30.38;;;12.95;;
59728;SDS011;45588;51.598;5.618;2024-01-27T05:03:28;26.05;;;12.35;;
59728;SDS011;45588;51.598;5.618;2024-01-27T05:05:53;31.30;;;13.68;;
59728;SDS011;45588;51.598;5.618;2024-01-27T05:08:18;33.45;;;13.40;;
59728;SDS011;45588;51.598;5.618;2024-01-27T05:10:44;22.08;;;12.48;;
59728;SDS011;45588;51.598;5.618;2024-01-27T05:13:09;29.63;;;13.35;;
59728;SDS011;45588;51.598;5.618;2024-01-27T05:15:34;30.63;;;13.05;;
59728;SDS011;45588;51.598;5.618;2024-01-27T05:18:00;31.52;;;14.48;;
59728;SDS011;45588;51.598;5.618;2024-01-27T05:20:25;27.10;;;15.65;;
59728;SDS011;45588;51.598;5.618;2024-01-27T05:22:50;23.75;;;12.50;;
59728;SDS011;45588;51.598;5.618;2024-01-27T05:25:15;22.38;;;11.30;;
59728;SDS011;45588;51.598;5.618;2024-01-27T05:27:41;20.85;;;12.43;;
59728;SDS011;45588;51.598;5.618;2024-01-27T05:30:07;23.90;;;13.25;;
59728;SDS011;45588;51.598;5.618;2024-01-27T05:32:32;19.45;;;13.27;;
59728;SDS011;45588;51.598;5.618;2024-01-27T05:34:58;25.48;;;13.88;;
59728;SDS011;45588;51.598;5.618;2024-01-27T05:37:23;24.65;;;12.63;;
59728;SDS011;45588;51.598;5.618;2024-01-27T05:39:48;34.08;;;12.93;;
59728;SDS011;45588;51.598;5.618;2024-01-27T05:42:13;36.28;;;13.63;;
59728;SDS011;45588;51.598;5.618;2024-01-27T05:44:38;34.88;;;13.23;;
59728;SDS011;45588;51.598;5.618;2024-01-27T05:47:05;23.38;;;12.20;;
59728;SDS011;45588;51.598;5.618;2024-01-27T05:49:31;30.17;;;14.60;;
59728;SDS011;45588;51.598;5.618;2024-01-27T05:51:56;29.95;;;13.10;;
59728;SDS011;45588;51.598;5.618;2024-01-27T05:54:21;26.27;;;12.75;;
59728;SDS011;45588;51.598;5.618;2024-01-27T05:56:47;32.35;;;13.57;;
59728;SDS011;45588;51.598;5.618;2024-01-27T05:59:12;25.05;;;12.98;;
59728;SDS011;45588;51.598;5.618;2024-01-27T06:01:37;27.00;;;12.77;;
59728;SDS011;45588;51.598;5.618;2024-01-27T06:04:05;22.25;;;12.48;;
59728;SDS011;45588;51.598;5.618;2024-01-27T06:06:30;34.38;;;15.15;;
59728;SDS011;45588;51.598;5.618;2024-01-27T06:08:55;27.30;;;15.50;;
59728;SDS011;45588;51.598;5.618;2024-01-27T06:11:24;31.23;;;14.60;;
59728;SDS011;45588;51.598;5.618;2024-01-27T06:13:50;33.10;;;15.77;;
59728;SDS011;45588;51.598;5.618;2024-01-27T06:16:15;34.30;;;14.00;;
59728;SDS011;45588;51.598;5.618;2024-01-27T06:18:40;29.50;;;13.90;;
59728;SDS011;45588;51.598;5.618;2024-01-27T06:21:05;23.75;;;13.40;;
59728;SDS011;45588;51.598;5.618;2024-01-27T06:23:30;28.02;;;13.40;;
59728;SDS011;45588;51.598;5.618;2024-01-27T06:25:55;26.33;;;13.48;;
59728;SDS011;45588;51.598;5.618;2024-01-27T06:28:21;29.73;;;14.10;;
59728;SDS011;45588;51.598;5.618;2024-01-27T06:30:46;29.48;;;13.00;;
59728;SDS011;45588;51.598;5.618;2024-01-27T06:33:11;38.03;;;13.52;;
59728;SDS011;45588;51.598;5.618;2024-01-27T06:35:36;25.38;;;12.18;;
59728;SDS011;45588;51.598;5.618;2024-01-27T06:38:01;30.58;;;13.30;;
59728;SDS011;45588;51.598;5.618;2024-01-27T06:40:27;31.35;;;13.30;;
59728;SDS011;45588;51.598;5.618;2024-01-27T06:42:52;31.08;;;14.07;;
59728;SDS011;45588;51.598;5.618;2024-01-27T06:45:18;30.92;;;14.45;;
59728;SDS011;45588;51.598;5.618;2024-01-27T06:47:43;27.88;;;15.18;;
59728;SDS011;45588;51.598;5.618;2024-01-27T06:50:09;28.40;;;14.75;;
59728;SDS011;45588;51.598;5.618;2024-01-27T06:52:34;24.90;;;14.43;;
59728;SDS011;45588;51.598;5.618;2024-01-27T06:54:59;37.85;;;15.65;;
59728;SDS011;45588;51.598;5.618;2024-01-27T06:57:24;23.67;;;13.05;;
59728;SDS011;45588;51.598;5.618;2024-01-27T06:59:50;28.92;;;15.02;;
59728;SDS011;45588;51.598;5.618;2024-01-27T07:02:27;30.92;;;14.38;;
59728;SDS011;45588;51.598;5.618;2024-01-27T07:04:52;30.33;;;14.35;;
59728;SDS011;45588;51.598;5.618;2024-01-27T07:07:18;26.75;;;14.30;;
59728;SDS011;45588;51.598;5.618;2024-01-27T07:09:46;39.13;;;15.85;;
59728;SDS011;45588;51.598;5.618;2024-01-27T07:12:11;28.15;;;14.93;;
59728;SDS011;45588;51.598;5.618;2024-01-27T07:14:36;30.45;;;15.18;;
59728;SDS011;45588;51.598;5.618;2024-01-27T07:17:02;35.00;;;15.73;;
59728;SDS011;45588;51.598;5.618;2024-01-27T07:19:28;26.75;;;14.73;;
59728;SDS011;45588;51.598;5.618;2024-01-27T07:21:54;31.92;;;13.30;;
59728;SDS011;45588;51.598;5.618;2024-01-27T07:24:19;30.05;;;13.55;;
59728;SDS011;45588;51.598;5.618;2024-01-27T07:26:44;36.90;;;14.35;;
59728;SDS011;45588;51.598;5.618;2024-01-27T07:29:10;25.55;;;13.38;;
59728;SDS011;45588;51.598;5.618;2024-01-27T07:31:35;37.38;;;16.33;;
59728;SDS011;45588;51.598;5.618;2024-01-27T07:34:00;40.22;;;15.75;;
59728;SDS011;45588;51.598;5.618;2024-01-27T07:36:25;31.77;;;16.10;;
59728;SDS011;45588;51.598;5.618;2024-01-27T07:38:55;31.53;;;16.37;;
59728;SDS011;45588;51.598;5.618;2024-01-27T07:41:21;25.63;;;16.27;;
59728;SDS011;45588;51.598;5.618;2024-01-27T07:43:46;36.08;;;17.55;;
59728;SDS011;45588;51.598;5.618;2024-01-27T07:46:11;31.75;;;15.88;;
59728;SDS011;45588;51.598;5.618;2024-01-27T07:48:36;35.35;;;15.20;;
59728;SDS011;45588;51.598;5.618;2024-01-27T07:51:01;22.85;;;14.55;;
59728;SDS011;45588;51.598;5.618;2024-01-27T07:53:27;36.53;;;15.20;;
59728;SDS011;45588;51.598;5.618;2024-01-27T07:55:52;28.98;;;15.85;;
59728;SDS011;45588;51.598;5.618;2024-01-27T07:58:18;48.55;;;21.83;;
59728;SDS011;45588;51.598;5.618;2024-01-27T08:00:44;61.70;;;24.77;;
59728;SDS011;45588;51.598;5.618;2024-01-27T08:03:10;42.90;;;19.70;;
59728;SDS011;45588;51.598;5.618;2024-01-27T08:05:35;51.42;;;20.13;;
59728;SDS011;45588;51.598;5.618;2024-01-27T08:08:00;41.78;;;20.52;;
59728;SDS011;45588;51.598;5.618;2024-01-27T08:10:25;43.95;;;18.33;;
59728;SDS011;45588;51.598;5.618;2024-01-27T08:12:50;46.22;;;19.10;;
59728;SDS011;45588;51.598;5.618;2024-01-27T08:15:15;39.88;;;19.17;;
59728;SDS011;45588;51.598;5.618;2024-01-27T08:17:41;46.72;;;18.20;;
59728;SDS011;45588;51.598;5.618;2024-01-27T08:20:06;34.72;;;18.50;;
59728;SDS011;45588;51.598;5.618;2024-01-27T08:22:31;36.33;;;17.63;;
59728;SDS011;45588;51.598;5.618;2024-01-27T08:24:57;38.63;;;18.98;;
59728;SDS011;45588;51.598;5.618;2024-01-27T08:27:22;34.67;;;15.90;;
59728;SDS011;45588;51.598;5.618;2024-01-27T08:29:47;43.40;;;19.02;;
59728;SDS011;45588;51.598;5.618;2024-01-27T08:32:12;39.30;;;18.98;;
59728;SDS011;45588;51.598;5.618;2024-01-27T08:34:37;38.15;;;19.40;;
59728;SDS011;45588;51.598;5.618;2024-01-27T08:37:03;43.00;;;19.85;;
59728;SDS011;45588;51.598;5.618;2024-01-27T08:39:38;46.78;;;18.88;;
59728;SDS011;45588;51.598;5.618;2024-01-27T08:42:03;46.95;;;20.65;;
59728;SDS011;45588;51.598;5.618;2024-01-27T08:44:28;47.40;;;21.02;;
59728;SDS011;45588;51.598;5.618;2024-01-27T08:46:54;40.22;;;18.75;;
59728;SDS011;45588;51.598;5.618;2024-01-27T08:49:19;43.20;;;19.15;;
59728;SDS011;45588;51.598;5.618;2024-01-27T08:51:44;39.53;;;17.00;;
59728;SDS011;45588;51.598;5.618;2024-01-27T08:54:09;30.65;;;16.60;;
59728;SDS011;45588;51.598;5.618;2024-01-27T08:56:38;47.63;;;18.40;;
59728;SDS011;45588;51.598;5.618;2024-01-27T08:59:04;38.97;;;18.10;;
59728;SDS011;45588;51.598;5.618;2024-01-27T09:01:29;36.65;;;16.08;;
59728;SDS011;45588;51.598;5.618;2024-01-27T09:03:54;43.80;;;15.98;;
59728;SDS011;45588;51.598;5.618;2024-01-27T09:06:19;34.90;;;16.27;;
59728;SDS011;45588;51.598;5.618;2024-01-27T09:08:44;41.95;;;18.60;;
59728;SDS011;45588;51.598;5.618;2024-01-27T09:11:10;37.25;;;17.17;;
59728;SDS011;45588;51.598;5.618;2024-01-27T09:13:35;34.45;;;17.88;;
59728;SDS011;45588;51.598;5.618;2024-01-27T09:16:00;54.30;;;18.85;;
59728;SDS011;45588;51.598;5.618;2024-01-27T09:18:26;46.88;;;16.38;;
59728;SDS011;45588;51.598;5.618;2024-01-27T09:20:51;38.30;;;15.90;;
59728;SDS011;45588;51.598;5.618;2024-01-27T09:23:17;36.55;;;16.27;;
59728;SDS011;45588;51.598;5.618;2024-01-27T09:25:42;45.58;;;17.52;;
59728;SDS011;45588;51.598;5.618;2024-01-27T09:28:07;36.47;;;15.25;;
59728;SDS011;45588;51.598;5.618;2024-01-27T09:30:32;46.63;;;16.70;;
59728;SDS011;45588;51.598;5.618;2024-01-27T09:32:57;43.50;;;17.08;;
59728;SDS011;45588;51.598;5.618;2024-01-27T09:35:23;42.80;;;17.55;;
59728;SDS011;45588;51.598;5.618;2024-01-27T09:37:48;42.45;;;17.48;;
59728;SDS011;45588;51.598;5.618;2024-01-27T09:40:13;28.40;;;15.90;;
59728;SDS011;45588;51.598;5.618;2024-01-27T09:42:38;44.20;;;16.30;;
59728;SDS011;45588;51.598;5.618;2024-01-27T09:45:04;48.75;;;18.38;;
59728;SDS011;45588;51.598;5.618;2024-01-27T09:47:30;52.05;;;16.23;;
59728;SDS011;45588;51.598;5.618;2024-01-27T09:49:55;35.90;;;15.68;;
59728;SDS011;45588;51.598;5.618;2024-01-27T09:52:20;41.88;;;14.45;;
59728;SDS011;45588;51.598;5.618;2024-01-27T09:54:45;50.45;;;16.55;;
59728;SDS011;45588;51.598;5.618;2024-01-27T09:57:11;34.58;;;15.90;;
59728;SDS011;45588;51.598;5.618;2024-01-27T09:59:37;32.72;;;14.38;;
59728;SDS011;45588;51.598;5.618;2024-01-27T10:02:04;50.85;;;16.10;;
59728;SDS011;45588;51.598;5.618;2024-01-27T10:04:30;33.65;;;14.48;;
59728;SDS011;45588;51.598;5.618;2024-01-27T10:06:57;34.88;;;15.02;;
59728;SDS011;45588;51.598;5.618;2024-01-27T10:09:23;38.17;;;14.63;;
59728;SDS011;45588;51.598;5.618;2024-01-27T10:11:48;43.33;;;17.17;;
59728;SDS011;45588;51.598;5.618;2024-01-27T10:14:14;47.92;;;17.38;;
59728;SDS011;45588;51.598;5.618;2024-01-27T10:16:39;32.42;;;14.98;;
59728;SDS011;45588;51.598;5.618;2024-01-27T10:19:04;39.58;;;15.18;;
59728;SDS011;45588;51.598;5.618;2024-01-27T10:21:30;35.25;;;15.02;;
59728;SDS011;45588;51.598;5.618;2024-01-27T10:23:55;36.10;;;13.90;;
59728;SDS011;45588;51.598;5.618;2024-01-27T10:26:20;34.97;;;14.03;;
59728;SDS011;45588;51.598;5.618;2024-01-27T10:28:55;41.28;;;15.30;;
59728;SDS011;45588;51.598;5.618;2024-01-27T10:31:28;41.53;;;15.13;;
59728;SDS011;45588;51.598;5.618;2024-01-27T10:33:54;38.05;;;14.30;;
59728;SDS011;45588;51.598;5.618;2024-01-27T10:36:19;39.47;;;12.85;;
59728;SDS011;45588;51.598;5.618;2024-01-27T10:38:45;37.60;;;16.58;;
59728;SDS011;45588;51.598;5.618;2024-01-27T10:41:10;32.20;;;13.45;;
59728;SDS011;45588;51.598;5.618;2024-01-27T10:43:36;55.65;;;24.23;;
59728;SDS011;45588;51.598;5.618;2024-01-27T10:46:02;41.45;;;14.95;;
59728;SDS011;45588;51.598;5.618;2024-01-27T10:48:30;32.67;;;13.52;;
59728;SDS011;45588;51.598;5.618;2024-01-27T10:50:55;30.40;;;13.70;;
59728;SDS011;45588;51.598;5.618;2024-01-27T10:53:22;38.25;;;15.02;;
59728;SDS011;45588;51.598;5.618;2024-01-27T10:55:53;34.80;;;12.68;;
59728;SDS011;45588;51.598;5.618;2024-01-27T10:58:20;34.28;;;13.00;;
59728;SDS011;45588;51.598;5.618;2024-01-27T11:00:46;31.60;;;12.90;;
59728;SDS011;45588;51.598;5.618;2024-01-27T11:03:12;49.45;;;12.90;;
59728;SDS011;45588;51.598;5.618;2024-01-27T11:05:38;26.55;;;10.52;;
59728;SDS011;45588;51.598;5.618;2024-01-27T11:08:04;30.70;;;10.30;;
59728;SDS011;45588;51.598;5.618;2024-01-27T11:10:30;35.33;;;12.48;;
59728;SDS011;45588;51.598;5.618;2024-01-27T11:13:01;33.10;;;13.13;;
59728;SDS011;45588;51.598;5.618;2024-01-27T11:15:27;34.67;;;11.27;;
59728;SDS011;45588;51.598;5.618;2024-01-27T11:17:56;27.33;;;10.75;;
59728;SDS011;45588;51.598;5.618;2024-01-27T11:20:21;45.63;;;11.38;;
59728;SDS011;45588;51.598;5.618;2024-01-27T11:22:48;32.70;;;9.55;;
59728;SDS011;45588;51.598;5.618;2024-01-27T11:25:17;30.77;;;9.13;;
59728;SDS011;45588;51.598;5.618;2024-01-27T11:27:43;37.60;;;11.20;;
59728;SDS011;45588;51.598;5.618;2024-01-27T11:30:25;32.08;;;9.38;;
59728;SDS011;45588;51.598;5.618;2024-01-27T11:32:50;31.42;;;8.90;;
59728;SDS011;45588;51.598;5.618;2024-01-27T11:35:18;38.53;;;9.48;;
59728;SDS011;45588;51.598;5.618;2024-01-27T11:37:43;32.72;;;8.70;;
59728;SDS011;45588;51.598;5.618;2024-01-27T11:40:09;33.70;;;9.40;;
59728;SDS011;45588;51.598;5.618;2024-01-27T11:42:34;29.92;;;9.43;;
59728;SDS011;45588;51.598;5.618;2024-01-27T11:45:00;31.13;;;8.77;;
59728;SDS011;45588;51.598;5.618;2024-01-27T11:47:25;27.63;;;9.27;;
59728;SDS011;45588;51.598;5.618;2024-01-27T11:49:51;26.90;;;8.40;;
59728;SDS011;45588;51.598;5.618;2024-01-27T11:52:20;39.40;;;14.25;;
59728;SDS011;45588;51.598;5.618;2024-01-27T11:54:45;28.58;;;7.53;;
59728;SDS011;45588;51.598;5.618;2024-01-27T11:57:10;26.85;;;8.10;;
59728;SDS011;45588;51.598;5.618;2024-01-27T11:59:35;22.95;;;7.82;;
59728;SDS011;45588;51.598;5.618;2024-01-27T12:02:01;22.88;;;6.35;;
59728;SDS011;45588;51.598;5.618;2024-01-27T12:04:27;32.90;;;12.68;;
59728;SDS011;45588;51.598;5.618;2024-01-27T12:06:52;19.00;;;7.30;;
59728;SDS011;45588;51.598;5.618;2024-01-27T12:09:18;21.33;;;6.60;;
59728;SDS011;45588;51.598;5.618;2024-01-27T12:11:43;19.05;;;7.13;;
59728;SDS011;45588;51.598;5.618;2024-01-27T12:14:08;21.33;;;7.72;;
59728;SDS011;45588;51.598;5.618;2024-01-27T12:16:34;22.08;;;6.93;;
59728;SDS011;45588;51.598;5.618;2024-01-27T12:18:59;17.02;;;6.93;;
59728;SDS011;45588;51.598;5.618;2024-01-27T12:21:25;25.48;;;7.10;;
59728;SDS011;45588;51.598;5.618;2024-01-27T12:23:54;25.40;;;8.65;;
59728;SDS011;45588;51.598;5.618;2024-01-27T12:26:22;17.80;;;5.18;;
59728;SDS011;45588;51.598;5.618;2024-01-27T12:28:49;23.45;;;5.57;;
59728;SDS011;45588;51.598;5.618;2024-01-27T12:31:17;24.13;;;7.00;;
59728;SDS011;45588;51.598;5.618;2024-01-27T12:33:52;17.90;;;6.28;;
59728;SDS011;45588;51.598;5.618;2024-01-27T12:36:18;19.85;;;5.75;;
59728;SDS011;45588;51.598;5.618;2024-01-27T12:38:53;21.42;;;5.80;;
59728;SDS011;45588;51.598;5.618;2024-01-27T12:41:18;16.35;;;5.40;;
59728;SDS011;45588;51.598;5.618;2024-01-27T12:43:43;23.40;;;6.00;;
59728;SDS011;45588;51.598;5.618;2024-01-27T12:46:08;16.57;;;6.03;;
59728;SDS011;45588;51.598;5.618;2024-01-27T12:48:34;20.10;;;7.40;;
59728;SDS011;45588;51.598;5.618;2024-01-27T12:50:59;17.95;;;6.20;;
59728;SDS011;45588;51.598;5.618;2024-01-27T12:53:25;25.40;;;7.78;;
59728;SDS011;45588;51.598;5.618;2024-01-27T12:55:50;25.80;;;6.87;;
59728;SDS011;45588;51.598;5.618;2024-01-27T12:58:16;28.38;;;6.70;;
59728;SDS011;45588;51.598;5.618;2024-01-27T13:00:41;26.13;;;6.70;;
59728;SDS011;45588;51.598;5.618;2024-01-27T13:03:06;27.80;;;10.80;;
59728;SDS011;45588;51.598;5.618;2024-01-27T13:05:32;18.45;;;5.32;;
59728;SDS011;45588;51.598;5.618;2024-01-27T13:07:59;20.45;;;7.07;;
59728;SDS011;45588;51.598;5.618;2024-01-27T13:10:24;18.52;;;5.53;;
59728;SDS011;45588;51.598;5.618;2024-01-27T13:12:49;20.23;;;6.67;;
59728;SDS011;45588;51.598;5.618;2024-01-27T13:15:14;18.90;;;5.57;;
59728;SDS011;45588;51.598;5.618;2024-01-27T13:17:40;22.77;;;5.80;;
59728;SDS011;45588;51.598;5.618;2024-01-27T13:20:07;35.05;;;7.53;;
59728;SDS011;45588;51.598;5.618;2024-01-27T13:22:32;22.00;;;5.45;;
59728;SDS011;45588;51.598;5.618;2024-01-27T13:24:57;20.37;;;6.03;;
59728;SDS011;45588;51.598;5.618;2024-01-27T13:27:26;11.00;;;5.85;;
59728;SDS011;45588;51.598;5.618;2024-01-27T13:29:51;17.97;;;6.00;;
59728;SDS011;45588;51.598;5.618;2024-01-27T13:32:16;25.03;;;7.70;;
59728;SDS011;45588;51.598;5.618;2024-01-27T13:34:41;31.13;;;10.97;;
59728;SDS011;45588;51.598;5.618;2024-01-27T13:37:07;20.42;;;6.82;;
59728;SDS011;45588;51.598;5.618;2024-01-27T13:39:34;17.60;;;6.85;;
59728;SDS011;45588;51.598;5.618;2024-01-27T13:42:00;22.95;;;5.70;;
59728;SDS011;45588;51.598;5.618;2024-01-27T13:44:25;19.13;;;5.70;;
59728;SDS011;45588;51.598;5.618;2024-01-27T13:46:50;29.97;;;5.87;;
59728;SDS011;45588;51.598;5.618;2024-01-27T13:49:16;18.23;;;5.40;;
59728;SDS011;45588;51.598;5.618;2024-01-27T13:51:41;23.15;;;6.47;;
59728;SDS011;45588;51.598;5.618;2024-01-27T13:54:06;20.50;;;7.55;;
59728;SDS011;45588;51.598;5.618;2024-01-27T13:56:34;18.13;;;7.25;;
59728;SDS011;45588;51.598;5.618;2024-01-27T13:58:59;16.47;;;5.83;;
59728;SDS011;45588;51.598;5.618;2024-01-27T14:01:24;20.20;;;6.28;;
59728;SDS011;45588;51.598;5.618;2024-01-27T14:03:49;16.33;;;5.23;;
59728;SDS011;45588;51.598;5.618;2024-01-27T14:06:15;24.33;;;7.47;;
59728;SDS011;45588;51.598;5.618;2024-01-27T14:08:40;19.95;;;5.80;;
59728;SDS011;45588;51.598;5.618;2024-01-27T14:11:05;23.73;;;5.53;;
59728;SDS011;45588;51.598;5.618;2024-01-27T14:13:30;29.00;;;6.45;;
59728;SDS011;45588;51.598;5.618;2024-01-27T14:15:55;18.10;;;4.63;;